sensor_id;sensor_type;location;lat;lon;timestamp;P1;durP1;ratioP1;P2;durP2;ratioP2
1569;SDS011;778;50.120;8.698;2022-09-14T00:01:46;23.80;;;21.50;;
1569;SDS011;778;50.120;8.698;2022-09-14T00:04:15;23.73;;;21.63;;
1569;SDS011;778;50.120;8.698;2022-09-14T00:06:46;23.67;;;21.43;;
1569;SDS011;778;50.120;8.698;2022-09-14T00:09:15;22.83;;;20.50;;
1569;SDS011;778;50.120;8.698;2022-09-14T00:11:47;21.73;;;19.93;;
1569;SDS011;778;50.120;8.698;2022-09-14T00:14:18;22.50;;;20.53;;
1569;SDS011;778;50.120;8.698;2022-09-14T00:16:47;22.53;;;20.43;;
1569;SDS011;778;50.120;8.698;2022-09-14T00:19:18;21.90;;;19.90;;
1569;SDS011;778;50.120;8.698;2022-09-14T00:21:49;23.43;;;21.23;;
1569;SDS011;778;50.120;8.698;2022-09-14T00:24:20;23.53;;;21.50;;
1569;SDS011;778;50.120;8.698;2022-09-14T00:26:50;23.47;;;21.50;;
1569;SDS011;778;50.120;8.698;2022-09-14T00:29:22;25.80;;;23.50;;
1569;SDS011;778;50.120;8.698;2022-09-14T00:31:51;25.90;;;23.30;;
1569;SDS011;778;50.120;8.698;2022-09-14T00:34:19;25.23;;;22.97;;
1569;SDS011;778;50.120;8.698;2022-09-14T00:36:48;23.77;;;21.47;;
1569;SDS011;778;50.120;8.698;2022-09-14T00:39:19;25.60;;;23.37;;
1569;SDS011;778;50.120;8.698;2022-09-14T00:41:50;23.70;;;21.40;;
1569;SDS011;778;50.120;8.698;2022-09-14T00:47:33;27.37;;;24.90;;
1569;SDS011;778;50.120;8.698;2022-09-14T00:50:02;28.27;;;25.60;;
1569;SDS011;778;50.120;8.698;2022-09-14T00:52:33;28.80;;;26.30;;
1569;SDS011;778;50.120;8.698;2022-09-14T00:55:05;29.10;;;26.43;;
1569;SDS011;778;50.120;8.698;2022-09-14T00:57:38;27.47;;;24.97;;
1569;SDS011;778;50.120;8.698;2022-09-14T01:00:12;29.83;;;27.20;;
1569;SDS011;778;50.120;8.698;2022-09-14T01:02:45;27.63;;;25.00;;
1569;SDS011;778;50.120;8.698;2022-09-14T01:05:14;26.03;;;23.50;;
1569;SDS011;778;50.120;8.698;2022-09-14T01:07:47;27.03;;;24.60;;
1569;SDS011;778;50.120;8.698;2022-09-14T01:10:45;25.73;;;23.30;;
1569;SDS011;778;50.120;8.698;2022-09-14T01:13:32;28.33;;;25.57;;
1569;SDS011;778;50.120;8.698;2022-09-14T01:16:11;28.97;;;26.37;;
1569;SDS011;778;50.120;8.698;2022-09-14T01:18:49;29.00;;;26.40;;
1569;SDS011;778;50.120;8.698;2022-09-14T01:21:23;27.47;;;24.97;;
1569;SDS011;778;50.120;8.698;2022-09-14T01:23:59;24.83;;;22.53;;
1569;SDS011;778;50.120;8.698;2022-09-14T01:26:39;25.17;;;22.83;;
1569;SDS011;778;50.120;8.698;2022-09-14T01:29:43;23.83;;;21.73;;
1569;SDS011;778;50.120;8.698;2022-09-14T01:32:16;23.50;;;21.47;;
1569;SDS011;778;50.120;8.698;2022-09-14T01:34:50;23.10;;;21.03;;
1569;SDS011;778;50.120;8.698;2022-09-14T01:37:24;23.00;;;21.00;;
1569;SDS011;778;50.120;8.698;2022-09-14T01:39:59;22.70;;;20.60;;
1569;SDS011;778;50.120;8.698;2022-09-14T01:42:34;23.37;;;21.27;;
1569;SDS011;778;50.120;8.698;2022-09-14T01:45:06;20.90;;;19.00;;
1569;SDS011;778;50.120;8.698;2022-09-14T01:47:38;20.07;;;18.10;;
1569;SDS011;778;50.120;8.698;2022-09-14T01:50:13;21.73;;;19.60;;
1569;SDS011;778;50.120;8.698;2022-09-14T01:52:48;21.87;;;19.67;;
1569;SDS011;778;50.120;8.698;2022-09-14T01:55:26;22.13;;;19.93;;
1569;SDS011;778;50.120;8.698;2022-09-14T01:58:03;21.50;;;19.50;;
1569;SDS011;778;50.120;8.698;2022-09-14T02:00:38;22.37;;;20.13;;
1569;SDS011;778;50.120;8.698;2022-09-14T02:03:13;24.10;;;21.80;;
1569;SDS011;778;50.120;8.698;2022-09-14T02:05:47;22.53;;;20.47;;
1569;SDS011;778;50.120;8.698;2022-09-14T02:08:25;23.70;;;21.53;;
1569;SDS011;778;50.120;8.698;2022-09-14T02:10:56;25.77;;;23.30;;
1569;SDS011;778;50.120;8.698;2022-09-14T02:13:27;26.30;;;23.60;;
1569;SDS011;778;50.120;8.698;2022-09-14T02:15:56;27.63;;;25.00;;
1569;SDS011;778;50.120;8.698;2022-09-14T02:18:24;24.87;;;22.53;;
1569;SDS011;778;50.120;8.698;2022-09-14T02:20:53;27.30;;;24.73;;
1569;SDS011;778;50.120;8.698;2022-09-14T02:23:25;26.63;;;24.27;;
1569;SDS011;778;50.120;8.698;2022-09-14T02:25:54;26.23;;;23.80;;
1569;SDS011;778;50.120;8.698;2022-09-14T02:28:23;28.73;;;26.10;;
1569;SDS011;778;50.120;8.698;2022-09-14T02:31:01;27.17;;;24.53;;
1569;SDS011;778;50.120;8.698;2022-09-14T02:33:42;28.23;;;25.77;;
1569;SDS011;778;50.120;8.698;2022-09-14T02:36:21;29.50;;;26.87;;
1569;SDS011;778;50.120;8.698;2022-09-14T02:38:58;27.57;;;25.23;;
1569;SDS011;778;50.120;8.698;2022-09-14T02:41:34;26.97;;;24.53;;
1569;SDS011;778;50.120;8.698;2022-09-14T02:44:12;28.53;;;25.77;;
1569;SDS011;778;50.120;8.698;2022-09-14T02:46:50;29.07;;;26.37;;
1569;SDS011;778;50.120;8.698;2022-09-14T02:49:26;27.50;;;24.97;;
1569;SDS011;778;50.120;8.698;2022-09-14T02:52:03;27.07;;;24.57;;
1569;SDS011;778;50.120;8.698;2022-09-14T02:54:45;25.33;;;22.70;;
1569;SDS011;778;50.120;8.698;2022-09-14T02:57:19;27.70;;;25.20;;
1569;SDS011;778;50.120;8.698;2022-09-14T02:59:48;27.20;;;24.50;;
1569;SDS011;778;50.120;8.698;2022-09-14T03:02:17;26.40;;;23.90;;
1569;SDS011;778;50.120;8.698;2022-09-14T03:04:46;27.30;;;24.70;;
1569;SDS011;778;50.120;8.698;2022-09-14T03:07:14;21.40;;;19.40;;
1569;SDS011;778;50.120;8.698;2022-09-14T03:09:42;27.57;;;24.80;;
1569;SDS011;778;50.120;8.698;2022-09-14T03:12:11;28.03;;;25.23;;
1569;SDS011;778;50.120;8.698;2022-09-14T03:14:39;25.70;;;23.20;;
1569;SDS011;778;50.120;8.698;2022-09-14T03:17:07;26.23;;;23.93;;
1569;SDS011;778;50.120;8.698;2022-09-14T03:19:37;25.53;;;23.13;;
1569;SDS011;778;50.120;8.698;2022-09-14T03:22:06;25.10;;;22.57;;
1569;SDS011;778;50.120;8.698;2022-09-14T03:24:34;26.13;;;23.73;;
1569;SDS011;778;50.120;8.698;2022-09-14T03:27:03;25.60;;;22.97;;
1569;SDS011;778;50.120;8.698;2022-09-14T03:29:31;25.03;;;22.70;;
1569;SDS011;778;50.120;8.698;2022-09-14T03:32:00;26.83;;;24.43;;
1569;SDS011;778;50.120;8.698;2022-09-14T03:34:29;25.00;;;22.77;;
1569;SDS011;778;50.120;8.698;2022-09-14T03:36:58;27.93;;;25.43;;
1569;SDS011;778;50.120;8.698;2022-09-14T03:39:27;27.50;;;25.10;;
1569;SDS011;778;50.120;8.698;2022-09-14T03:41:55;27.43;;;24.73;;
1569;SDS011;778;50.120;8.698;2022-09-14T03:44:24;26.13;;;23.83;;
1569;SDS011;778;50.120;8.698;2022-09-14T03:46:52;24.60;;;22.30;;
1569;SDS011;778;50.120;8.698;2022-09-14T03:49:20;26.13;;;23.67;;
1569;SDS011;778;50.120;8.698;2022-09-14T03:51:49;27.57;;;24.87;;
1569;SDS011;778;50.120;8.698;2022-09-14T03:54:24;26.10;;;23.80;;
1569;SDS011;778;50.120;8.698;2022-09-14T03:56:52;25.00;;;22.70;;
1569;SDS011;778;50.120;8.698;2022-09-14T03:59:21;27.10;;;24.60;;
1569;SDS011;778;50.120;8.698;2022-09-14T04:01:49;24.03;;;21.83;;
1569;SDS011;778;50.120;8.698;2022-09-14T04:04:18;22.70;;;20.60;;
1569;SDS011;778;50.120;8.698;2022-09-14T04:06:46;20.63;;;18.73;;
1569;SDS011;778;50.120;8.698;2022-09-14T04:09:14;20.80;;;18.90;;
1569;SDS011;778;50.120;8.698;2022-09-14T04:11:45;14.00;;;12.70;;
1569;SDS011;778;50.120;8.698;2022-09-14T04:14:14;15.10;;;13.80;;
1569;SDS011;778;50.120;8.698;2022-09-14T04:16:43;13.37;;;12.30;;
1569;SDS011;778;50.120;8.698;2022-09-14T04:19:11;14.30;;;13.00;;
1569;SDS011;778;50.120;8.698;2022-09-14T04:21:40;13.77;;;12.70;;
1569;SDS011;778;50.120;8.698;2022-09-14T04:24:08;14.47;;;13.17;;
1569;SDS011;778;50.120;8.698;2022-09-14T04:26:41;17.60;;;16.07;;
1569;SDS011;778;50.120;8.698;2022-09-14T04:29:12;20.00;;;18.07;;
1569;SDS011;778;50.120;8.698;2022-09-14T04:31:41;21.03;;;19.07;;
1569;SDS011;778;50.120;8.698;2022-09-14T04:34:10;20.57;;;18.67;;
1569;SDS011;778;50.120;8.698;2022-09-14T04:36:40;20.93;;;19.03;;
1569;SDS011;778;50.120;8.698;2022-09-14T04:39:09;20.70;;;18.80;;
1569;SDS011;778;50.120;8.698;2022-09-14T04:41:40;22.10;;;19.90;;
1569;SDS011;778;50.120;8.698;2022-09-14T04:44:09;21.07;;;19.27;;
1569;SDS011;778;50.120;8.698;2022-09-14T04:46:39;21.70;;;19.57;;
1569;SDS011;778;50.120;8.698;2022-09-14T04:49:12;20.97;;;19.00;;
1569;SDS011;778;50.120;8.698;2022-09-14T04:51:41;21.60;;;19.67;;
1569;SDS011;778;50.120;8.698;2022-09-14T04:54:12;23.77;;;21.67;;
1569;SDS011;778;50.120;8.698;2022-09-14T04:56:42;23.13;;;20.93;;
1569;SDS011;778;50.120;8.698;2022-09-14T04:59:11;23.90;;;21.70;;
1569;SDS011;778;50.120;8.698;2022-09-14T05:01:43;21.93;;;19.93;;
1569;SDS011;778;50.120;8.698;2022-09-14T05:04:13;22.33;;;20.03;;
1569;SDS011;778;50.120;8.698;2022-09-14T05:06:42;20.57;;;18.77;;
1569;SDS011;778;50.120;8.698;2022-09-14T05:09:11;23.57;;;21.27;;
1569;SDS011;778;50.120;8.698;2022-09-14T05:11:42;21.07;;;19.17;;
1569;SDS011;778;50.120;8.698;2022-09-14T05:14:12;21.50;;;19.50;;
1569;SDS011;778;50.120;8.698;2022-09-14T05:16:43;22.47;;;20.37;;
1569;SDS011;778;50.120;8.698;2022-09-14T05:19:13;20.80;;;18.70;;
1569;SDS011;778;50.120;8.698;2022-09-14T05:21:44;20.53;;;18.90;;
1569;SDS011;778;50.120;8.698;2022-09-14T05:24:13;21.23;;;19.13;;
1569;SDS011;778;50.120;8.698;2022-09-14T05:26:44;21.60;;;19.63;;
1569;SDS011;778;50.120;8.698;2022-09-14T05:29:14;19.13;;;17.43;;
1569;SDS011;778;50.120;8.698;2022-09-14T05:31:45;19.70;;;17.97;;
1569;SDS011;778;50.120;8.698;2022-09-14T05:34:14;18.93;;;17.23;;
1569;SDS011;778;50.120;8.698;2022-09-14T05:36:43;18.40;;;16.60;;
1569;SDS011;778;50.120;8.698;2022-09-14T05:39:12;18.70;;;17.00;;
1569;SDS011;778;50.120;8.698;2022-09-14T05:41:47;20.90;;;19.10;;
1569;SDS011;778;50.120;8.698;2022-09-14T05:44:15;18.57;;;16.97;;
1569;SDS011;778;50.120;8.698;2022-09-14T05:46:45;18.00;;;16.50;;
1569;SDS011;778;50.120;8.698;2022-09-14T05:49:14;19.23;;;17.33;;
1569;SDS011;778;50.120;8.698;2022-09-14T05:51:42;18.60;;;16.90;;
1569;SDS011;778;50.120;8.698;2022-09-14T05:54:11;19.80;;;18.00;;
1569;SDS011;778;50.120;8.698;2022-09-14T05:56:39;19.10;;;17.27;;
1569;SDS011;778;50.120;8.698;2022-09-14T05:59:07;18.73;;;17.07;;
1569;SDS011;778;50.120;8.698;2022-09-14T06:01:36;18.63;;;16.93;;
1569;SDS011;778;50.120;8.698;2022-09-14T06:04:06;21.00;;;18.83;;
1569;SDS011;778;50.120;8.698;2022-09-14T06:06:36;20.47;;;18.70;;
1569;SDS011;778;50.120;8.698;2022-09-14T06:09:05;17.23;;;15.77;;
1569;SDS011;778;50.120;8.698;2022-09-14T06:11:33;19.60;;;17.50;;
1569;SDS011;778;50.120;8.698;2022-09-14T06:14:03;17.07;;;15.40;;
1569;SDS011;778;50.120;8.698;2022-09-14T06:16:33;17.40;;;15.70;;
1569;SDS011;778;50.120;8.698;2022-09-14T06:19:01;16.63;;;14.93;;
1569;SDS011;778;50.120;8.698;2022-09-14T06:21:32;17.77;;;16.07;;
1569;SDS011;778;50.120;8.698;2022-09-14T06:24:02;15.23;;;13.83;;
1569;SDS011;778;50.120;8.698;2022-09-14T06:26:30;16.67;;;15.07;;
1569;SDS011;778;50.120;8.698;2022-09-14T06:28:59;16.90;;;15.60;;
1569;SDS011;778;50.120;8.698;2022-09-14T06:31:28;14.00;;;12.90;;
1569;SDS011;778;50.120;8.698;2022-09-14T06:33:56;14.30;;;13.10;;
1569;SDS011;778;50.120;8.698;2022-09-14T06:36:26;16.60;;;14.80;;
1569;SDS011;778;50.120;8.698;2022-09-14T06:38:57;16.17;;;14.67;;
1569;SDS011;778;50.120;8.698;2022-09-14T06:41:26;14.73;;;13.43;;
1569;SDS011;778;50.120;8.698;2022-09-14T06:43:56;14.87;;;13.37;;
1569;SDS011;778;50.120;8.698;2022-09-14T06:46:27;15.10;;;13.90;;
1569;SDS011;778;50.120;8.698;2022-09-14T06:48:59;14.07;;;12.67;;
1569;SDS011;778;50.120;8.698;2022-09-14T06:51:30;14.43;;;13.13;;
1569;SDS011;778;50.120;8.698;2022-09-14T06:54:01;14.93;;;13.80;;
1569;SDS011;778;50.120;8.698;2022-09-14T06:56:32;14.10;;;12.87;;
1569;SDS011;778;50.120;8.698;2022-09-14T06:59:02;14.50;;;13.30;;
1569;SDS011;778;50.120;8.698;2022-09-14T07:01:31;15.20;;;13.70;;
1569;SDS011;778;50.120;8.698;2022-09-14T07:04:00;16.37;;;14.90;;
1569;SDS011;778;50.120;8.698;2022-09-14T07:06:30;15.97;;;14.33;;
1569;SDS011;778;50.120;8.698;2022-09-14T07:09:03;15.60;;;14.00;;
1569;SDS011;778;50.120;8.698;2022-09-14T07:11:31;16.57;;;15.17;;
1569;SDS011;778;50.120;8.698;2022-09-14T07:14:00;14.97;;;13.30;;
1569;SDS011;778;50.120;8.698;2022-09-14T07:16:29;13.60;;;12.30;;
1569;SDS011;778;50.120;8.698;2022-09-14T07:19:00;14.30;;;13.10;;
1569;SDS011;778;50.120;8.698;2022-09-14T07:21:30;11.50;;;10.30;;
1569;SDS011;778;50.120;8.698;2022-09-14T07:24:00;23.37;;;11.90;;
1569;SDS011;778;50.120;8.698;2022-09-14T07:26:32;12.13;;;11.00;;
1569;SDS011;778;50.120;8.698;2022-09-14T07:29:06;12.30;;;11.27;;
1569;SDS011;778;50.120;8.698;2022-09-14T07:31:39;15.43;;;14.13;;
1569;SDS011;778;50.120;8.698;2022-09-14T07:34:10;13.43;;;12.30;;
1569;SDS011;778;50.120;8.698;2022-09-14T07:36:39;13.13;;;12.03;;
1569;SDS011;778;50.120;8.698;2022-09-14T07:39:11;14.43;;;13.33;;
1569;SDS011;778;50.120;8.698;2022-09-14T07:41:41;14.73;;;13.57;;
1569;SDS011;778;50.120;8.698;2022-09-14T07:44:12;15.33;;;13.83;;
1569;SDS011;778;50.120;8.698;2022-09-14T07:46:43;17.20;;;15.53;;
1569;SDS011;778;50.120;8.698;2022-09-14T07:49:13;14.70;;;12.67;;
1569;SDS011;778;50.120;8.698;2022-09-14T07:51:42;17.10;;;13.97;;
1569;SDS011;778;50.120;8.698;2022-09-14T07:54:13;15.53;;;14.13;;
1569;SDS011;778;50.120;8.698;2022-09-14T07:56:43;16.37;;;14.90;;
1569;SDS011;778;50.120;8.698;2022-09-14T07:59:12;16.10;;;14.70;;
1569;SDS011;778;50.120;8.698;2022-09-14T08:02:01;16.20;;;14.60;;
1569;SDS011;778;50.120;8.698;2022-09-14T08:04:32;16.90;;;14.07;;
1569;SDS011;778;50.120;8.698;2022-09-14T08:07:01;14.70;;;13.23;;
1569;SDS011;778;50.120;8.698;2022-09-14T08:09:32;12.20;;;11.30;;
1569;SDS011;778;50.120;8.698;2022-09-14T08:12:01;13.10;;;12.17;;
1569;SDS011;778;50.120;8.698;2022-09-14T08:14:30;13.40;;;12.00;;
1569;SDS011;778;50.120;8.698;2022-09-14T08:16:59;11.53;;;10.40;;
1569;SDS011;778;50.120;8.698;2022-09-14T08:19:27;12.00;;;11.10;;
1569;SDS011;778;50.120;8.698;2022-09-14T08:21:56;10.93;;;9.93;;
1569;SDS011;778;50.120;8.698;2022-09-14T08:24:24;12.20;;;10.60;;
1569;SDS011;778;50.120;8.698;2022-09-14T08:26:54;11.10;;;10.10;;
1569;SDS011;778;50.120;8.698;2022-09-14T08:29:22;13.20;;;9.97;;
1569;SDS011;778;50.120;8.698;2022-09-14T08:31:51;9.03;;;8.33;;
1569;SDS011;778;50.120;8.698;2022-09-14T08:34:19;9.97;;;9.03;;
1569;SDS011;778;50.120;8.698;2022-09-14T08:36:48;9.87;;;9.10;;
1569;SDS011;778;50.120;8.698;2022-09-14T08:39:16;9.33;;;8.63;;
1569;SDS011;778;50.120;8.698;2022-09-14T08:41:48;9.70;;;8.83;;
1569;SDS011;778;50.120;8.698;2022-09-14T08:44:23;9.90;;;9.00;;
1569;SDS011;778;50.120;8.698;2022-09-14T08:46:57;9.57;;;7.90;;
1569;SDS011;778;50.120;8.698;2022-09-14T08:49:37;9.37;;;8.57;;
1569;SDS011;778;50.120;8.698;2022-09-14T08:52:12;7.90;;;7.30;;
1569;SDS011;778;50.120;8.698;2022-09-14T08:54:52;9.17;;;8.20;;
1569;SDS011;778;50.120;8.698;2022-09-14T08:57:25;10.33;;;9.30;;
1569;SDS011;778;50.120;8.698;2022-09-14T09:00:03;12.57;;;11.40;;
1569;SDS011;778;50.120;8.698;2022-09-14T09:05:50;9.57;;;8.47;;
1569;SDS011;778;50.120;8.698;2022-09-14T09:08:25;9.37;;;8.47;;
1569;SDS011;778;50.120;8.698;2022-09-14T09:11:02;10.67;;;9.50;;
1569;SDS011;778;50.120;8.698;2022-09-14T09:13:35;9.43;;;8.50;;
1569;SDS011;778;50.120;8.698;2022-09-14T09:16:07;7.10;;;6.47;;
1569;SDS011;778;50.120;8.698;2022-09-14T09:18:38;8.13;;;6.63;;
1569;SDS011;778;50.120;8.698;2022-09-14T09:21:13;7.97;;;6.73;;
1569;SDS011;778;50.120;8.698;2022-09-14T09:23:44;6.70;;;6.10;;
1569;SDS011;778;50.120;8.698;2022-09-14T09:26:14;6.67;;;6.17;;
1569;SDS011;778;50.120;8.698;2022-09-14T09:28:52;6.23;;;5.40;;
1569;SDS011;778;50.120;8.698;2022-09-14T09:31:25;5.37;;;4.97;;
1569;SDS011;778;50.120;8.698;2022-09-14T09:34:22;5.30;;;4.90;;
1569;SDS011;778;50.120;8.698;2022-09-14T09:37:10;5.63;;;5.10;;
1569;SDS011;778;50.120;8.698;2022-09-14T09:39:41;6.27;;;5.57;;
1569;SDS011;778;50.120;8.698;2022-09-14T09:42:12;578.37;;;51.63;;
1569;SDS011;778;50.120;8.698;2022-09-14T09:44:56;127.83;;;17.20;;
1569;SDS011;778;50.120;8.698;2022-09-14T09:47:31;7.70;;;5.70;;
1569;SDS011;778;50.120;8.698;2022-09-14T09:50:03;6.30;;;5.80;;
1569;SDS011;778;50.120;8.698;2022-09-14T09:52:47;8.10;;;7.33;;
1569;SDS011;778;50.120;8.698;2022-09-14T09:55:17;7.57;;;6.97;;
1569;SDS011;778;50.120;8.698;2022-09-14T09:57:47;9.90;;;6.53;;
1569;SDS011;778;50.120;8.698;2022-09-14T10:00:19;7.23;;;6.57;;
1569;SDS011;778;50.120;8.698;2022-09-14T10:02:51;9.10;;;6.43;;
1569;SDS011;778;50.120;8.698;2022-09-14T10:05:21;8.03;;;6.57;;
1569;SDS011;778;50.120;8.698;2022-09-14T10:07:55;6.80;;;6.10;;
1569;SDS011;778;50.120;8.698;2022-09-14T10:10:38;7.63;;;6.77;;
1569;SDS011;778;50.120;8.698;2022-09-14T10:13:15;16.10;;;8.27;;
1569;SDS011;778;50.120;8.698;2022-09-14T10:15:51;8.53;;;7.47;;
1569;SDS011;778;50.120;8.698;2022-09-14T10:18:21;7.30;;;6.80;;
1569;SDS011;778;50.120;8.698;2022-09-14T10:23:36;7.40;;;6.80;;
1569;SDS011;778;50.120;8.698;2022-09-14T10:26:16;5.87;;;5.37;;
1569;SDS011;778;50.120;8.698;2022-09-14T10:28:52;5.90;;;5.40;;
1569;SDS011;778;50.120;8.698;2022-09-14T10:31:24;7.47;;;5.93;;
1569;SDS011;778;50.120;8.698;2022-09-14T10:33:58;6.30;;;5.90;;
1569;SDS011;778;50.120;8.698;2022-09-14T10:36:28;5.93;;;5.43;;
1569;SDS011;778;50.120;8.698;2022-09-14T10:39:00;6.27;;;5.77;;
1569;SDS011;778;50.120;8.698;2022-09-14T10:41:40;6.00;;;5.40;;
1569;SDS011;778;50.120;8.698;2022-09-14T10:44:17;6.87;;;6.23;;
1569;SDS011;778;50.120;8.698;2022-09-14T10:47:15;6.93;;;6.43;;
1569;SDS011;778;50.120;8.698;2022-09-14T10:50:03;7.50;;;6.13;;
1569;SDS011;778;50.120;8.698;2022-09-14T10:52:51;6.63;;;6.13;;
1569;SDS011;778;50.120;8.698;2022-09-14T10:55:34;8.80;;;7.90;;
1569;SDS011;778;50.120;8.698;2022-09-14T10:58:19;7.60;;;7.10;;
1569;SDS011;778;50.120;8.698;2022-09-14T11:01:00;8.73;;;8.03;;
1569;SDS011;778;50.120;8.698;2022-09-14T11:03:50;9.37;;;8.63;;
1569;SDS011;778;50.120;8.698;2022-09-14T11:06:33;9.37;;;8.73;;
1569;SDS011;778;50.120;8.698;2022-09-14T11:09:15;8.33;;;7.73;;
1569;SDS011;778;50.120;8.698;2022-09-14T11:11:51;7.93;;;7.33;;
1569;SDS011;778;50.120;8.698;2022-09-14T11:14:33;9.13;;;8.00;;
1569;SDS011;778;50.120;8.698;2022-09-14T11:17:21;12.10;;;11.00;;
1569;SDS011;778;50.120;8.698;2022-09-14T11:20:30;9.73;;;8.83;;
1569;SDS011;778;50.120;8.698;2022-09-14T11:23:14;9.87;;;9.07;;
1569;SDS011;778;50.120;8.698;2022-09-14T11:25:53;10.87;;;10.00;;
1569;SDS011;778;50.120;8.698;2022-09-14T11:28:26;10.90;;;10.00;;
1569;SDS011;778;50.120;8.698;2022-09-14T11:31:00;10.37;;;9.57;;
1569;SDS011;778;50.120;8.698;2022-09-14T11:33:34;11.53;;;10.37;;
1569;SDS011;778;50.120;8.698;2022-09-14T11:36:08;12.43;;;11.33;;
1569;SDS011;778;50.120;8.698;2022-09-14T11:38:46;12.90;;;11.80;;
1569;SDS011;778;50.120;8.698;2022-09-14T11:41:21;13.50;;;12.47;;
1569;SDS011;778;50.120;8.698;2022-09-14T11:43:58;13.53;;;12.27;;
1569;SDS011;778;50.120;8.698;2022-09-14T11:46:32;16.67;;;13.00;;
1569;SDS011;778;50.120;8.698;2022-09-14T11:49:08;13.33;;;10.83;;
1569;SDS011;778;50.120;8.698;2022-09-14T11:51:45;11.60;;;10.30;;
1569;SDS011;778;50.120;8.698;2022-09-14T11:54:20;12.30;;;11.30;;
1569;SDS011;778;50.120;8.698;2022-09-14T11:56:50;12.13;;;11.10;;
1569;SDS011;778;50.120;8.698;2022-09-14T11:59:36;11.37;;;10.37;;
1569;SDS011;778;50.120;8.698;2022-09-14T12:05:32;11.53;;;10.40;;
1569;SDS011;778;50.120;8.698;2022-09-14T12:11:21;11.30;;;9.93;;
1569;SDS011;778;50.120;8.698;2022-09-14T12:14:20;11.57;;;10.57;;
1569;SDS011;778;50.120;8.698;2022-09-14T12:17:03;12.10;;;10.33;;
1569;SDS011;778;50.120;8.698;2022-09-14T12:23:12;8.77;;;7.87;;
1569;SDS011;778;50.120;8.698;2022-09-14T12:25:54;9.97;;;9.00;;
1569;SDS011;778;50.120;8.698;2022-09-14T12:28:40;11.97;;;10.77;;
1569;SDS011;778;50.120;8.698;2022-09-14T12:34:29;10.53;;;9.60;;
1569;SDS011;778;50.120;8.698;2022-09-14T12:46:37;9.07;;;8.17;;
1569;SDS011;778;50.120;8.698;2022-09-14T12:52:16;10.40;;;9.50;;
1569;SDS011;778;50.120;8.698;2022-09-14T12:55:06;9.93;;;8.93;;
1569;SDS011;778;50.120;8.698;2022-09-14T12:57:59;10.73;;;9.73;;
1569;SDS011;778;50.120;8.698;2022-09-14T13:00:45;12.37;;;11.17;;
1569;SDS011;778;50.120;8.698;2022-09-14T13:03:28;13.33;;;12.03;;
1569;SDS011;778;50.120;8.698;2022-09-14T13:06:15;12.40;;;11.10;;
1569;SDS011;778;50.120;8.698;2022-09-14T13:08:45;14.67;;;13.03;;
1569;SDS011;778;50.120;8.698;2022-09-14T13:11:19;11.07;;;10.07;;
1569;SDS011;778;50.120;8.698;2022-09-14T13:13:51;11.20;;;9.67;;
1569;SDS011;778;50.120;8.698;2022-09-14T13:19:20;12.80;;;11.50;;
1569;SDS011;778;50.120;8.698;2022-09-14T13:21:52;13.80;;;12.53;;
1569;SDS011;778;50.120;8.698;2022-09-14T13:24:23;19.80;;;12.00;;
1569;SDS011;778;50.120;8.698;2022-09-14T13:26:58;13.87;;;12.57;;
1569;SDS011;778;50.120;8.698;2022-09-14T13:29:28;13.50;;;12.20;;
1569;SDS011;778;50.120;8.698;2022-09-14T13:31:58;13.83;;;12.57;;
1569;SDS011;778;50.120;8.698;2022-09-14T13:34:30;13.53;;;12.20;;
1569;SDS011;778;50.120;8.698;2022-09-14T13:37:02;12.03;;;10.87;;
1569;SDS011;778;50.120;8.698;2022-09-14T13:39:33;12.70;;;11.40;;
1569;SDS011;778;50.120;8.698;2022-09-14T13:42:03;13.10;;;11.93;;
1569;SDS011;778;50.120;8.698;2022-09-14T13:44:33;14.67;;;11.80;;
1569;SDS011;778;50.120;8.698;2022-09-14T13:47:12;12.50;;;10.73;;
1569;SDS011;778;50.120;8.698;2022-09-14T13:49:44;15.13;;;12.67;;
1569;SDS011;778;50.120;8.698;2022-09-14T13:55:24;12.37;;;11.27;;
1569;SDS011;778;50.120;8.698;2022-09-14T13:58:04;14.13;;;11.50;;
1569;SDS011;778;50.120;8.698;2022-09-14T14:00:45;12.13;;;10.97;;
1569;SDS011;778;50.120;8.698;2022-09-14T14:03:29;12.37;;;11.10;;
1569;SDS011;778;50.120;8.698;2022-09-14T14:06:02;16.33;;;12.20;;
1569;SDS011;778;50.120;8.698;2022-09-14T14:08:50;14.70;;;12.30;;
1569;SDS011;778;50.120;8.698;2022-09-14T14:11:31;14.30;;;12.90;;
1569;SDS011;778;50.120;8.698;2022-09-14T14:14:15;13.80;;;12.40;;
1569;SDS011;778;50.120;8.698;2022-09-14T14:17:09;13.60;;;12.30;;
1569;SDS011;778;50.120;8.698;2022-09-14T14:19:52;15.37;;;13.87;;
1569;SDS011;778;50.120;8.698;2022-09-14T14:22:23;16.40;;;14.57;;
1569;SDS011;778;50.120;8.698;2022-09-14T14:24:55;15.43;;;13.80;;
1569;SDS011;778;50.120;8.698;2022-09-14T14:27:40;14.00;;;12.50;;
1569;SDS011;778;50.120;8.698;2022-09-14T14:30:12;17.13;;;15.60;;
1569;SDS011;778;50.120;8.698;2022-09-14T14:32:45;15.57;;;13.70;;
1569;SDS011;778;50.120;8.698;2022-09-14T14:35:20;15.30;;;13.90;;
1569;SDS011;778;50.120;8.698;2022-09-14T14:37:50;16.03;;;14.53;;
1569;SDS011;778;50.120;8.698;2022-09-14T14:40:19;18.20;;;16.50;;
1569;SDS011;778;50.120;8.698;2022-09-14T14:42:48;15.97;;;14.47;;
1569;SDS011;778;50.120;8.698;2022-09-14T14:45:18;16.53;;;15.13;;
1569;SDS011;778;50.120;8.698;2022-09-14T14:47:52;16.13;;;14.67;;
1569;SDS011;778;50.120;8.698;2022-09-14T14:50:24;14.03;;;12.67;;
1569;SDS011;778;50.120;8.698;2022-09-14T14:52:55;17.40;;;15.87;;
1569;SDS011;778;50.120;8.698;2022-09-14T14:55:23;15.93;;;14.43;;
1569;SDS011;778;50.120;8.698;2022-09-14T14:57:52;15.80;;;14.30;;
1569;SDS011;778;50.120;8.698;2022-09-14T15:00:26;15.20;;;13.80;;
1569;SDS011;778;50.120;8.698;2022-09-14T15:02:57;16.67;;;15.27;;
1569;SDS011;778;50.120;8.698;2022-09-14T15:05:27;20.80;;;18.90;;
1569;SDS011;778;50.120;8.698;2022-09-14T15:07:56;18.60;;;16.87;;
1569;SDS011;778;50.120;8.698;2022-09-14T15:10:25;18.50;;;16.83;;
1569;SDS011;778;50.120;8.698;2022-09-14T15:12:56;23.03;;;19.70;;
1569;SDS011;778;50.120;8.698;2022-09-14T15:15:24;19.80;;;18.03;;
1569;SDS011;778;50.120;8.698;2022-09-14T15:17:53;21.23;;;19.30;;
1569;SDS011;778;50.120;8.698;2022-09-14T15:20:21;21.20;;;19.00;;
1569;SDS011;778;50.120;8.698;2022-09-14T15:22:51;22.40;;;19.30;;
1569;SDS011;778;50.120;8.698;2022-09-14T15:25:20;24.23;;;19.83;;
1569;SDS011;778;50.120;8.698;2022-09-14T15:27:48;19.87;;;18.07;;
1569;SDS011;778;50.120;8.698;2022-09-14T15:30:16;22.03;;;19.73;;
1569;SDS011;778;50.120;8.698;2022-09-14T15:32:45;19.30;;;17.30;;
1569;SDS011;778;50.120;8.698;2022-09-14T15:35:14;20.30;;;18.33;;
1569;SDS011;778;50.120;8.698;2022-09-14T15:37:42;20.43;;;18.50;;
1569;SDS011;778;50.120;8.698;2022-09-14T15:40:14;21.73;;;19.77;;
1569;SDS011;778;50.120;8.698;2022-09-14T15:42:43;19.50;;;17.67;;
1569;SDS011;778;50.120;8.698;2022-09-14T15:45:11;20.27;;;17.70;;
1569;SDS011;778;50.120;8.698;2022-09-14T15:47:40;18.60;;;17.00;;
1569;SDS011;778;50.120;8.698;2022-09-14T15:50:09;18.07;;;16.17;;
1569;SDS011;778;50.120;8.698;2022-09-14T15:52:38;18.20;;;16.40;;
1569;SDS011;778;50.120;8.698;2022-09-14T15:55:07;18.97;;;17.37;;
1569;SDS011;778;50.120;8.698;2022-09-14T15:57:39;18.47;;;16.63;;
1569;SDS011;778;50.120;8.698;2022-09-14T16:00:09;18.47;;;16.63;;
1569;SDS011;778;50.120;8.698;2022-09-14T16:02:41;17.93;;;15.77;;
1569;SDS011;778;50.120;8.698;2022-09-14T16:05:09;17.17;;;15.80;;
1569;SDS011;778;50.120;8.698;2022-09-14T16:07:38;19.13;;;17.33;;
1569;SDS011;778;50.120;8.698;2022-09-14T16:10:07;17.13;;;15.33;;
1569;SDS011;778;50.120;8.698;2022-09-14T16:12:36;20.27;;;18.43;;
1569;SDS011;778;50.120;8.698;2022-09-14T16:15:06;23.17;;;20.80;;
1569;SDS011;778;50.120;8.698;2022-09-14T16:17:36;24.57;;;22.17;;
1569;SDS011;778;50.120;8.698;2022-09-14T16:20:04;26.03;;;23.33;;
1569;SDS011;778;50.120;8.698;2022-09-14T16:22:35;24.23;;;22.13;;